Time;durP1;ratioP1;P1;durP2;ratioP2;P2;SDS_P1;SDS_P2;PMS_P1;PMS_P2;Temp;Humidity;BMP_temperature;BMP_pressure;BME280_temperature;BME280_humidity;BME280_pressure;Samples;Min_cycle;Max_cycle;Signal;HPM_P1;HPM_P2
2022/06/26 00:03:44;;;;;;;1.77;0.85;;;;;;;;;;10337510;28;20484;-47
2022/06/26 00:08:45;;;;;;;1.50;0.98;;;;;;;;;;10344971;28;20038;-47
2022/06/26 00:13:46;;;;;;;1.58;1.00;;;;;;;;;;10330052;28;20088;-47
2022/06/26 00:18:47;;;;;;;1.65;0.90;;;;;;;;;;10344466;28;20457;-47
2022/06/26 00:23:47;;;;;;;2.67;0.95;;;;;;;;;;10337240;28;20050;-48
2022/06/26 00:28:48;;;;;;;3.05;0.95;;;;;;;;;;10331511;28;20035;-47
2022/06/26 00:33:49;;;;;;;1.42;0.90;;;;;;;;;;10359841;28;20033;-47
2022/06/26 00:38:49;;;;;;;1.50;0.88;;;;;;;;;;10352387;28;20025;-47
2022/06/26 00:43:50;;;;;;;3.80;1.02;;;;;;;;;;10338799;28;20034;-48
2022/06/26 00:48:52;;;;;;;2.08;1.00;;;;;;;;;;10348333;28;20076;-47
2022/06/26 00:53:53;;;;;;;2.58;1.20;;;;;;;;;;10354895;28;20019;-48
2022/06/26 00:58:55;;;;;;;1.73;1.00;;;;;;;;;;10351487;28;20081;-47
2022/06/26 01:03:55;;;;;;;1.25;1.10;;;;;;;;;;10337982;28;20315;-47
2022/06/26 01:08:59;;;;;;;3.53;1.10;;;;;;;;;;10346727;28;20644;-47
2022/06/26 01:14:00;;;;;;;1.88;1.10;;;;;;;;;;10346199;28;20124;-48
2022/06/26 01:19:01;;;;;;;2.15;1.08;;;;;;;;;;10334372;28;20033;-47
2022/06/26 01:24:03;;;;;;;1.15;1.05;;;;;;;;;;10359184;28;20037;-47
2022/06/26 01:29:04;;;;;;;1.13;1.00;;;;;;;;;;10359162;28;20465;-48
2022/06/26 01:34:09;;;;;;;2.55;1.00;;;;;;;;;;10327577;28;20121;-48
2022/06/26 01:39:10;;;;;;;2.70;1.20;;;;;;;;;;10340910;28;20031;-47
2022/06/26 01:44:11;;;;;;;3.25;0.95;;;;;;;;;;10340204;28;20021;-47
2022/06/26 01:49:11;;;;;;;1.42;1.00;;;;;;;;;;10342750;28;20462;-47
2022/06/26 01:54:12;;;;;;;0.98;0.90;;;;;;;;;;10346619;28;20042;-47
2022/06/26 01:59:13;;;;;;;1.80;0.85;;;;;;;;;;10346331;28;20030;-47
2022/06/26 02:04:16;;;;;;;2.17;1.02;;;;;;;;;;10345334;28;20026;-47
2022/06/26 02:14:36;;;;;;;1.70;1.00;;;;;;;;;;10359173;28;20093;-47
2022/06/26 02:19:36;;;;;;;1.35;1.00;;;;;;;;;;10344998;28;20035;-47
2022/06/26 02:24:38;;;;;;;3.90;1.10;;;;;;;;;;10345717;28;20050;-47
2022/06/26 02:29:38;;;;;;;1.40;1.00;;;;;;;;;;10345530;28;20293;-47
2022/06/26 02:34:39;;;;;;;1.52;1.27;;;;;;;;;;10361905;28;20257;-48
2022/06/26 02:39:40;;;;;;;1.48;1.00;;;;;;;;;;10341788;28;20023;-47
2022/06/26 02:44:40;;;;;;;2.00;1.08;;;;;;;;;;10343012;28;20027;-47
2022/06/26 02:49:41;;;;;;;1.30;1.20;;;;;;;;;;10362962;28;20034;-47
2022/06/26 02:54:41;;;;;;;1.45;1.00;;;;;;;;;;10349060;28;20053;-49
2022/06/26 02:59:42;;;;;;;2.33;1.13;;;;;;;;;;10335705;28;20098;-47
2022/06/26 03:04:42;;;;;;;1.80;1.15;;;;;;;;;;10340457;28;20218;-47
2022/06/26 03:09:43;;;;;;;1.00;0.82;;;;;;;;;;10348361;28;20026;-47
2022/06/26 03:14:44;;;;;;;1.10;1.00;;;;;;;;;;10344860;28;20085;-47
2022/06/26 03:19:45;;;;;;;1.77;0.90;;;;;;;;;;10355996;28;20039;-48
2022/06/26 03:24:45;;;;;;;1.08;0.85;;;;;;;;;;10366823;28;20517;-47
2022/06/26 03:29:46;;;;;;;0.93;0.80;;;;;;;;;;10363690;28;20034;-47
2022/06/26 03:34:46;;;;;;;1.33;1.10;;;;;;;;;;10345326;28;20038;-47
2022/06/26 03:39:47;;;;;;;2.28;1.00;;;;;;;;;;10342943;28;20061;-47
2022/06/26 03:44:47;;;;;;;1.25;0.93;;;;;;;;;;10352982;28;20022;-47
2022/06/26 03:49:52;;;;;;;1.85;1.17;;;;;;;;;;10331734;28;20390;-47
2022/06/26 03:54:53;;;;;;;1.17;1.00;;;;;;;;;;10328971;28;20034;-58
2022/06/26 03:59:54;;;;;;;2.58;1.00;;;;;;;;;;10338406;28;20056;-50
2022/06/26 04:04:55;;;;;;;1.10;0.88;;;;;;;;;;10354752;28;20026;-47
2022/06/26 04:09:56;;;;;;;1.00;0.90;;;;;;;;;;10353417;28;20033;-57
2022/06/26 04:14:56;;;;;;;1.48;0.95;;;;;;;;;;10347999;28;20117;-46
2022/06/26 04:19:57;;;;;;;1.38;1.00;;;;;;;;;;10331965;28;20029;-50
2022/06/26 04:24:57;;;;;;;1.92;0.90;;;;;;;;;;10335026;28;20092;-47
2022/06/26 04:29:58;;;;;;;1.75;1.20;;;;;;;;;;10353530;28;20057;-47
2022/06/26 04:34:58;;;;;;;1.60;1.02;;;;;;;;;;10353854;28;20034;-52
2022/06/26 04:39:59;;;;;;;2.22;1.10;;;;;;;;;;10366202;28;20088;-47
2022/06/26 04:45:00;;;;;;;1.08;0.80;;;;;;;;;;10341738;28;20101;-47
2022/06/26 04:50:02;;;;;;;2.63;1.05;;;;;;;;;;10354091;28;20368;-47
2022/06/26 04:55:03;;;;;;;2.20;1.20;;;;;;;;;;10328300;28;20053;-47
2022/06/26 05:00:11;;;;;;;2.10;1.20;;;;;;;;;;10339862;28;20462;-48
2022/06/26 05:05:11;;;;;;;1.27;1.00;;;;;;;;;;10350896;28;20030;-47
2022/06/26 05:10:12;;;;;;;1.23;1.10;;;;;;;;;;10329087;28;20030;-47
2022/06/26 05:15:12;;;;;;;2.05;1.20;;;;;;;;;;10344858;28;20030;-49
2022/06/26 05:20:13;;;;;;;1.17;1.08;;;;;;;;;;10360886;28;20030;-47
2022/06/26 05:25:14;;;;;;;1.23;1.10;;;;;;;;;;10364127;23;20054;-58
2022/06/26 05:30:14;;;;;;;1.10;1.00;;;;;;;;;;10312862;28;20033;-57
2022/06/26 05:35:15;;;;;;;2.17;1.00;;;;;;;;;;10311500;28;20030;-58
2022/06/26 05:40:16;;;;;;;1.27;0.98;;;;;;;;;;10311375;28;20026;-57
2022/06/26 05:45:16;;;;;;;1.05;0.95;;;;;;;;;;10295295;28;20049;-58
2022/06/26 05:50:18;;;;;;;1.75;1.20;;;;;;;;;;10314355;28;20501;-57
2022/06/26 05:55:19;;;;;;;1.40;1.00;;;;;;;;;;10295926;28;20041;-57
2022/06/26 06:00:19;;;;;;;1.35;1.10;;;;;;;;;;10298725;28;20045;-57
2022/06/26 06:05:20;;;;;;;3.90;1.35;;;;;;;;;;10313835;28;20367;-58
2022/06/26 06:10:23;;;;;;;2.70;1.10;;;;;;;;;;10290240;28;20102;-58
2022/06/26 06:15:24;;;;;;;2.65;1.35;;;;;;;;;;10303989;28;20026;-57
2022/06/26 06:20:24;;;;;;;3.10;1.13;;;;;;;;;;10306879;28;20030;-58
2022/06/26 06:25:25;;;;;;;1.42;0.93;;;;;;;;;;10302805;28;20041;-57
2022/06/26 06:30:26;;;;;;;2.00;1.15;;;;;;;;;;10293819;28;20485;-57
2022/06/26 06:35:27;;;;;;;1.92;1.05;;;;;;;;;;10298091;28;20038;-58
2022/06/26 06:40:27;;;;;;;1.98;1.38;;;;;;;;;;10303804;28;20034;-57
2022/06/26 06:45:28;;;;;;;3.13;1.63;;;;;;;;;;10304260;28;20035;-57
2022/06/26 06:50:29;;;;;;;4.13;1.63;;;;;;;;;;10306734;28;20026;-57
2022/06/26 06:55:30;;;;;;;3.63;1.55;;;;;;;;;;10304323;28;20063;-58
2022/06/26 07:00:30;;;;;;;4.45;1.70;;;;;;;;;;10315370;28;20161;-58
2022/06/26 07:05:32;;;;;;;3.47;1.73;;;;;;;;;;10316045;28;20387;-57
2022/06/26 07:10:33;;;;;;;4.47;1.67;;;;;;;;;;10316498;28;20050;-57
2022/06/26 07:15:33;;;;;;;4.57;1.70;;;;;;;;;;10292963;28;20113;-58
2022/06/26 07:20:34;;;;;;;7.45;1.92;;;;;;;;;;10311574;28;20023;-57
2022/06/26 07:25:35;;;;;;;6.10;2.00;;;;;;;;;;10308778;28;20053;-58
2022/06/26 07:30:35;;;;;;;3.05;1.60;;;;;;;;;;10312056;28;20186;-58
2022/06/26 07:35:36;;;;;;;2.75;1.75;;;;;;;;;;10308600;28;20471;-57
2022/06/26 07:40:36;;;;;;;2.42;1.65;;;;;;;;;;10316002;28;20027;-57
2022/06/26 07:45:37;;;;;;;3.95;2.03;;;;;;;;;;10288876;28;20030;-57
2022/06/26 07:50:37;;;;;;;4.25;2.00;;;;;;;;;;10301359;28;20031;-57
2022/06/26 07:55:38;;;;;;;3.55;1.83;;;;;;;;;;10288610;28;20139;-57
2022/06/26 08:00:39;;;;;;;4.88;2.42;;;;;;;;;;10291513;28;20389;-57
2022/06/26 08:05:41;;;;;;;5.05;2.00;;;;;;;;;;10324190;28;20034;-57
2022/06/26 08:10:42;;;;;;;9.88;2.20;;;;;;;;;;10304106;28;20022;-57
2022/06/26 08:15:42;;;;;;;4.30;1.98;;;;;;;;;;10301036;28;20027;-57
2022/06/26 08:20:43;;;;;;;5.30;2.15;;;;;;;;;;10296568;28;20402;-57
2022/06/26 08:25:44;;;;;;;5.43;2.15;;;;;;;;;;10319700;28;20054;-57
2022/06/26 08:30:44;;;;;;;6.25;2.35;;;;;;;;;;10309867;28;20474;-57
2022/06/26 08:35:45;;;;;;;3.92;1.88;;;;;;;;;;10318632;28;20027;-57
2022/06/26 08:40:46;;;;;;;9.32;2.72;;;;;;;;;;10294428;28;20371;-57
2022/06/26 08:45:52;;;;;;;5.10;2.38;;;;;;;;;;10292068;28;20494;-57
2022/06/26 08:50:53;;;;;;;6.07;2.58;;;;;;;;;;10306892;28;20110;-57
2022/06/26 08:55:54;;;;;;;5.88;2.25;;;;;;;;;;10299513;28;20049;-57
2022/06/26 09:00:55;;;;;;;4.28;2.10;;;;;;;;;;10291718;28;20134;-57
2022/06/26 09:05:57;;;;;;;9.57;2.70;;;;;;;;;;10304570;28;20134;-57
2022/06/26 09:10:58;;;;;;;6.07;2.53;;;;;;;;;;10306777;28;20412;-57
2022/06/26 09:15:59;;;;;;;8.10;2.85;;;;;;;;;;10312279;28;20026;-57
2022/06/26 09:21:01;;;;;;;7.35;2.38;;;;;;;;;;10299504;28;20378;-57
2022/06/26 09:26:02;;;;;;;7.45;2.80;;;;;;;;;;10296547;28;20383;-57
2022/06/26 09:31:04;;;;;;;7.65;2.67;;;;;;;;;;10312346;28;20042;-57
2022/06/26 09:36:05;;;;;;;6.25;2.40;;;;;;;;;;10299594;28;20080;-57
2022/06/26 09:41:08;;;;;;;10.00;2.35;;;;;;;;;;10288318;28;20470;-57
2022/06/26 09:46:12;;;;;;;7.93;2.78;;;;;;;;;;10312212;28;20529;-57
2022/06/26 09:51:13;;;;;;;6.80;2.45;;;;;;;;;;10317954;28;20038;-57
2022/06/26 09:56:14;;;;;;;7.40;2.75;;;;;;;;;;10300776;28;20118;-57
2022/06/26 10:06:36;;;;;;;12.32;2.85;;;;;;;;;;10301035;28;20034;-57
2022/06/26 10:11:41;;;;;;;5.97;2.75;;;;;;;;;;10293446;28;20066;-57
2022/06/26 10:16:51;;;;;;;7.25;2.60;;;;;;;;;;10305919;28;20398;-57
2022/06/26 10:21:52;;;;;;;5.43;2.50;;;;;;;;;;10291188;28;20105;-57
2022/06/26 10:26:59;;;;;;;7.88;2.80;;;;;;;;;;10296216;28;20042;-57
2022/06/26 10:32:00;;;;;;;6.75;2.78;;;;;;;;;;10298930;28;20026;-57
2022/06/26 10:37:10;;;;;;;10.30;3.45;;;;;;;;;;10295455;28;20068;-57
2022/06/26 10:47:52;;;;;;;8.98;2.90;;;;;;;;;;10290705;28;20030;-57
2022/06/26 10:53:14;;;;;;;9.77;2.83;;;;;;;;;;10290454;28;20079;-57
2022/06/26 10:58:48;;;;;;;8.38;2.80;;;;;;;;;;10314739;28;20037;-57
2022/06/26 11:03:49;;;;;;;7.50;2.67;;;;;;;;;;10291398;28;20033;-57
2022/06/26 11:08:52;;;;;;;4.28;2.10;;;;;;;;;;10307102;28;20027;-57
2022/06/26 11:14:06;;;;;;;6.70;2.45;;;;;;;;;;10308881;28;20410;-57
2022/06/26 11:19:31;;;;;;;5.97;2.38;;;;;;;;;;10313345;28;20027;-57
2022/06/26 11:24:32;;;;;;;11.77;3.33;;;;;;;;;;10295037;28;20039;-56
2022/06/26 11:29:33;;;;;;;7.80;3.13;;;;;;;;;;10300346;28;20492;-57
2022/06/26 11:34:33;;;;;;;8.75;2.65;;;;;;;;;;10312839;28;20046;-57
2022/06/26 11:39:41;;;;;;;8.40;2.67;;;;;;;;;;10315654;28;20328;-57
2022/06/26 11:44:53;;;;;;;11.23;2.72;;;;;;;;;;10298829;28;20097;-57
2022/06/26 11:49:53;;;;;;;10.38;2.75;;;;;;;;;;10309249;28;20054;-57
2022/06/26 11:55:01;;;;;;;9.80;3.10;;;;;;;;;;10310150;28;20486;-57
2022/06/26 12:00:08;;;;;;;4.32;2.17;;;;;;;;;;10305450;28;20023;-57
2022/06/26 12:05:10;;;;;;;8.85;2.47;;;;;;;;;;10321883;28;20049;-57
2022/06/26 12:10:11;;;;;;;8.13;2.50;;;;;;;;;;10303876;28;20023;-57
2022/06/26 12:15:15;;;;;;;8.90;2.92;;;;;;;;;;10309414;28;20498;-57
2022/06/26 12:20:16;;;;;;;6.43;2.35;;;;;;;;;;10301284;28;20493;-57
2022/06/26 12:25:32;;;;;;;9.10;2.80;;;;;;;;;;10292066;28;20043;-57
2022/06/26 12:30:36;;;;;;;5.25;2.22;;;;;;;;;;10301084;28;20185;-57
2022/06/26 12:35:36;;;;;;;6.93;2.60;;;;;;;;;;10299253;28;20035;-57
2022/06/26 12:40:37;;;;;;;5.43;2.47;;;;;;;;;;10320296;28;20034;-57
2022/06/26 12:45:38;;;;;;;5.53;2.15;;;;;;;;;;10313110;28;20037;-57
2022/06/26 12:50:39;;;;;;;5.72;2.30;;;;;;;;;;10299098;28;20022;-57
2022/06/26 12:55:40;;;;;;;2.92;1.90;;;;;;;;;;10325942;28;20113;-57
2022/06/26 13:00:41;;;;;;;6.32;2.25;;;;;;;;;;10313277;28;20390;-57
2022/06/26 13:05:41;;;;;;;6.40;2.28;;;;;;;;;;10311821;28;20474;-57
2022/06/26 13:10:44;;;;;;;7.85;2.40;;;;;;;;;;10302019;28;20105;-57
2022/06/26 13:15:44;;;;;;;5.70;2.25;;;;;;;;;;10298839;28;20034;-57
2022/06/26 13:20:45;;;;;;;4.88;2.35;;;;;;;;;;10308377;28;20023;-57
2022/06/26 13:25:46;;;;;;;5.43;2.10;;;;;;;;;;10325311;28;20053;-57
2022/06/26 13:30:46;;;;;;;8.65;2.17;;;;;;;;;;10312635;28;20413;-57
2022/06/26 13:35:47;;;;;;;5.97;2.10;;;;;;;;;;10302606;28;20061;-57
2022/06/26 13:40:48;;;;;;;3.83;1.92;;;;;;;;;;10318862;28;20102;-57
2022/06/26 13:45:48;;;;;;;5.93;2.00;;;;;;;;;;10294274;28;20027;-57
2022/06/26 13:50:49;;;;;;;3.78;1.90;;;;;;;;;;10313756;28;20042;-57
2022/06/26 13:55:50;;;;;;;6.07;2.00;;;;;;;;;;10302151;28;20117;-57
2022/06/26 14:00:51;;;;;;;6.32;2.00;;;;;;;;;;10306423;28;20029;-57
2022/06/26 14:05:54;;;;;;;5.07;2.40;;;;;;;;;;10305962;28;20034;-57
2022/06/26 14:10:56;;;;;;;7.40;2.45;;;;;;;;;;10304798;28;20034;-57
2022/06/26 14:15:56;;;;;;;7.65;2.10;;;;;;;;;;10318163;28;20046;-57
2022/06/26 14:20:58;;;;;;;5.85;2.15;;;;;;;;;;10332397;28;20030;-57
2022/06/26 14:25:59;;;;;;;7.03;1.98;;;;;;;;;;10315944;28;20080;-57
2022/06/26 14:31:04;;;;;;;8.15;2.22;;;;;;;;;;10321235;28;20026;-57
2022/06/26 14:36:06;;;;;;;5.13;2.13;;;;;;;;;;10315774;28;20097;-57
2022/06/26 14:41:08;;;;;;;7.53;2.63;;;;;;;;;;10331335;28;20026;-57
2022/06/26 14:46:09;;;;;;;12.55;2.50;;;;;;;;;;10317341;28;20114;-57
2022/06/26 14:51:10;;;;;;;7.78;2.20;;;;;;;;;;10317868;28;20030;-57
2022/06/26 14:56:10;;;;;;;6.70;2.83;;;;;;;;;;10303598;28;20081;-57
2022/06/26 15:01:11;;;;;;;5.63;2.03;;;;;;;;;;10316343;28;20113;-57
2022/06/26 15:06:11;;;;;;;8.65;2.00;;;;;;;;;;10310884;28;20082;-57
2022/06/26 15:11:12;;;;;;;5.50;2.08;;;;;;;;;;10304175;28;20049;-57
2022/06/26 15:16:13;;;;;;;7.80;2.53;;;;;;;;;;10303086;28;20530;-57
2022/06/26 15:21:13;;;;;;;9.07;2.40;;;;;;;;;;10311109;28;20073;-57
2022/06/26 15:26:14;;;;;;;7.90;2.10;;;;;;;;;;10321639;28;20053;-57
2022/06/26 15:31:16;;;;;;;8.13;2.17;;;;;;;;;;10306123;28;20039;-57
2022/06/26 15:36:17;;;;;;;7.85;1.98;;;;;;;;;;10298872;28;20082;-57
2022/06/26 15:41:18;;;;;;;7.95;2.40;;;;;;;;;;10302138;28;20114;-57
2022/06/26 15:46:18;;;;;;;6.13;2.30;;;;;;;;;;10297939;28;20059;-57
2022/06/26 15:51:20;;;;;;;5.68;2.33;;;;;;;;;;10321530;28;20014;-57
2022/06/26 15:56:21;;;;;;;8.18;2.10;;;;;;;;;;10314714;28;20250;-57
2022/06/26 16:01:22;;;;;;;4.15;1.95;;;;;;;;;;10314815;28;20169;-57
2022/06/26 16:06:22;;;;;;;6.82;1.77;;;;;;;;;;10313741;28;20417;-57
2022/06/26 16:11:23;;;;;;;5.95;2.40;;;;;;;;;;10302740;28;20397;-58
2022/06/26 16:16:24;;;;;;;5.15;1.85;;;;;;;;;;10297844;28;20067;-57
2022/06/26 16:21:24;;;;;;;7.70;2.10;;;;;;;;;;10301921;28;20037;-57
2022/06/26 16:26:26;;;;;;;5.75;2.17;;;;;;;;;;10312292;28;20047;-57
2022/06/26 16:31:30;;;;;;;7.72;1.80;;;;;;;;;;10313941;28;20398;-57
2022/06/26 16:36:31;;;;;;;5.32;2.00;;;;;;;;;;10312397;28;20085;-57
2022/06/26 16:41:32;;;;;;;6.45;2.08;;;;;;;;;;10290843;28;20455;-57
2022/06/26 16:46:32;;;;;;;8.18;2.50;;;;;;;;;;10321299;28;20262;-58
2022/06/26 16:51:33;;;;;;;2.95;1.50;;;;;;;;;;10301723;28;20027;-58
2022/06/26 16:56:33;;;;;;;5.03;1.95;;;;;;;;;;10308808;28;20023;-57
2022/06/26 17:01:35;;;;;;;4.65;2.08;;;;;;;;;;10314096;28;20064;-57
2022/06/26 17:06:35;;;;;;;3.72;1.98;;;;;;;;;;10302269;28;20432;-57
2022/06/26 17:11:36;;;;;;;4.28;2.22;;;;;;;;;;10318228;28;20030;-57
2022/06/26 17:16:37;;;;;;;4.97;1.77;;;;;;;;;;10302738;28;20026;-58
2022/06/26 17:21:37;;;;;;;7.30;2.13;;;;;;;;;;10317720;28;20029;-57
2022/06/26 17:26:38;;;;;;;4.90;1.70;;;;;;;;;;10312216;28;20039;-57
2022/06/26 17:31:39;;;;;;;5.80;2.15;;;;;;;;;;10319699;28;20080;-57
2022/06/26 17:36:39;;;;;;;10.20;2.42;;;;;;;;;;10317281;28;20045;-58
2022/06/26 17:41:41;;;;;;;11.20;2.45;;;;;;;;;;10317774;28;20030;-57
2022/06/26 17:46:41;;;;;;;7.97;2.03;;;;;;;;;;10321049;28;20455;-57
2022/06/26 17:51:42;;;;;;;9.57;2.50;;;;;;;;;;10304365;28;20037;-57
2022/06/26 17:56:43;;;;;;;4.22;1.90;;;;;;;;;;10315145;28;20034;-57
2022/06/26 18:01:44;;;;;;;5.57;2.08;;;;;;;;;;10298635;28;20031;-57
2022/06/26 18:06:44;;;;;;;6.60;2.15;;;;;;;;;;10301394;28;20034;-57
2022/06/26 18:11:46;;;;;;;7.50;2.22;;;;;;;;;;10310499;28;20182;-59
2022/06/26 18:16:46;;;;;;;23.85;2.80;;;;;;;;;;10303727;28;20042;-56
2022/06/26 18:21:47;;;;;;;9.60;2.35;;;;;;;;;;10302129;28;20634;-58
2022/06/26 18:26:49;;;;;;;6.95;2.55;;;;;;;;;;10302466;28;20046;-56
2022/06/26 18:31:53;;;;;;;7.35;2.15;;;;;;;;;;10315604;28;20034;-60
2022/06/26 18:36:53;;;;;;;11.55;2.60;;;;;;;;;;10315520;28;20033;-57
2022/06/26 18:41:54;;;;;;;7.57;2.35;;;;;;;;;;10318672;28;20030;-57
2022/06/26 18:46:55;;;;;;;8.48;2.50;;;;;;;;;;10320597;28;20398;-58
2022/06/26 18:51:56;;;;;;;6.85;2.40;;;;;;;;;;10317240;28;20034;-55
2022/06/26 18:56:56;;;;;;;7.78;2.25;;;;;;;;;;10327068;28;20038;-58
2022/06/26 19:01:58;;;;;;;5.65;2.17;;;;;;;;;;10308611;28;20109;-58
2022/06/26 19:06:59;;;;;;;14.65;2.58;;;;;;;;;;10317961;28;20023;-55
2022/06/26 19:17:21;;;;;;;5.70;2.28;;;;;;;;;;10329049;28;20106;-59
2022/06/26 19:22:23;;;;;;;5.13;2.20;;;;;;;;;;10304766;28;20053;-58
2022/06/26 19:27:24;;;;;;;8.77;2.20;;;;;;;;;;10295495;28;20802;-61
2022/06/26 19:32:25;;;;;;;11.05;2.90;;;;;;;;;;10293547;28;20038;-62
2022/06/26 19:37:25;;;;;;;7.35;2.20;;;;;;;;;;10291873;28;20105;-60
2022/06/26 19:42:30;;;;;;;8.50;2.47;;;;;;;;;;10295512;28;20029;-61
2022/06/26 19:47:31;;;;;;;7.47;2.70;;;;;;;;;;10289299;28;20459;-59
2022/06/26 19:52:32;;;;;;;6.50;2.40;;;;;;;;;;10290307;28;20572;-56
2022/06/26 19:57:33;;;;;;;7.50;2.00;;;;;;;;;;10307502;28;20073;-57
2022/06/26 20:02:36;;;;;;;10.07;2.05;;;;;;;;;;10327303;28;20139;-60
2022/06/26 20:07:39;;;;;;;9.38;2.35;;;;;;;;;;10318124;28;20106;-60
2022/06/26 20:12:40;;;;;;;6.28;1.90;;;;;;;;;;10300330;28;20117;-58
2022/06/26 20:17:40;;;;;;;7.82;2.25;;;;;;;;;;10300197;28;20033;-62
2022/06/26 20:22:41;;;;;;;5.18;2.15;;;;;;;;;;10303833;28;20450;-56
2022/06/26 20:27:42;;;;;;;11.65;2.38;;;;;;;;;;10307878;28;20426;-61
2022/06/26 20:32:43;;;;;;;7.75;2.60;;;;;;;;;;10302941;28;20049;-56
2022/06/26 20:37:43;;;;;;;11.88;2.30;;;;;;;;;;10311403;28;20402;-58
2022/06/26 20:42:44;;;;;;;12.40;2.70;;;;;;;;;;10315495;28;20038;-56
2022/06/26 20:47:45;;;;;;;15.23;2.53;;;;;;;;;;10316523;28;20038;-58
2022/06/26 20:52:45;;;;;;;14.27;2.65;;;;;;;;;;10317077;28;20034;-57
2022/06/26 20:57:46;;;;;;;18.88;2.67;;;;;;;;;;10311684;28;20038;-57
2022/06/26 21:02:47;;;;;;;16.70;3.38;;;;;;;;;;10304015;28;20050;-58
2022/06/26 21:07:49;;;;;;;22.27;2.70;;;;;;;;;;10308064;28;20031;-58
2022/06/26 21:12:50;;;;;;;21.48;2.67;;;;;;;;;;10316489;28;20062;-58
2022/06/26 21:17:52;;;;;;;13.82;2.78;;;;;;;;;;10286996;28;20466;-56
2022/06/26 21:22:52;;;;;;;33.30;3.20;;;;;;;;;;10302539;28;20121;-59
2022/06/26 21:27:53;;;;;;;26.15;3.00;;;;;;;;;;10292858;28;20047;-58
2022/06/26 21:32:54;;;;;;;19.92;2.70;;;;;;;;;;10305462;28;20035;-58
2022/06/26 21:37:54;;;;;;;12.85;2.83;;;;;;;;;;10295295;28;20035;-57
2022/06/26 21:42:55;;;;;;;15.27;3.08;;;;;;;;;;10294027;28;20030;-55
2022/06/26 21:47:58;;;;;;;17.50;3.13;;;;;;;;;;10308800;28;20035;-55
2022/06/26 21:52:59;;;;;;;16.23;2.85;;;;;;;;;;10295566;28;20039;-59
2022/06/26 21:57:59;;;;;;;8.45;2.55;;;;;;;;;;10292610;28;20023;-55
2022/06/26 22:03:07;;;;;;;7.88;2.40;;;;;;;;;;10308993;28;20057;-59
2022/06/26 22:08:08;;;;;;;14.20;2.33;;;;;;;;;;10311642;28;20034;-58
2022/06/26 22:13:08;;;;;;;6.53;2.35;;;;;;;;;;10317320;28;20460;-59
2022/06/26 22:18:09;;;;;;;10.98;2.78;;;;;;;;;;10295680;28;20029;-59
2022/06/26 22:23:10;;;;;;;10.00;2.05;;;;;;;;;;10293141;28;20043;-57
2022/06/26 22:28:11;;;;;;;6.68;2.13;;;;;;;;;;10308518;28;20506;-59
2022/06/26 22:33:11;;;;;;;5.43;1.83;;;;;;;;;;10321733;28;20038;-59
2022/06/26 22:38:12;;;;;;;6.32;2.40;;;;;;;;;;10316091;28;20060;-60
2022/06/26 22:43:12;;;;;;;10.98;2.40;;;;;;;;;;10312848;28;20027;-56
2022/06/26 22:48:13;;;;;;;7.93;2.20;;;;;;;;;;10316750;28;20026;-56
2022/06/26 22:53:14;;;;;;;6.90;1.92;;;;;;;;;;10303684;28;20039;-55
2022/06/26 22:58:14;;;;;;;4.90;2.15;;;;;;;;;;10317889;28;20489;-55
2022/06/26 23:03:15;;;;;;;4.80;1.80;;;;;;;;;;10307330;28;20035;-56
2022/06/26 23:08:16;;;;;;;7.63;1.90;;;;;;;;;;10304352;28;20088;-57
2022/06/26 23:13:16;;;;;;;7.75;1.98;;;;;;;;;;10305066;28;20042;-58
2022/06/26 23:18:18;;;;;;;4.65;1.60;;;;;;;;;;10309116;28;20395;-57
2022/06/26 23:23:18;;;;;;;5.25;1.70;;;;;;;;;;10301398;28;20478;-58
2022/06/26 23:28:19;;;;;;;9.13;2.00;;;;;;;;;;10290407;28;20084;-58
2022/06/26 23:33:20;;;;;;;5.85;1.80;;;;;;;;;;10297540;28;20497;-58
2022/06/26 23:38:20;;;;;;;5.03;2.00;;;;;;;;;;10302187;28;20278;-58
2022/06/26 23:43:21;;;;;;;5.18;1.98;;;;;;;;;;10297342;28;20336;-59
2022/06/26 23:48:22;;;;;;;2.75;1.52;;;;;;;;;;10303643;28;20031;-57
2022/06/26 23:53:22;;;;;;;3.60;1.80;;;;;;;;;;10295993;28;20368;-59
2022/06/26 23:58:23;;;;;;;6.50;1.67;;;;;;;;;;10301749;28;20098;-58
